sensor_id;sensor_type;location;lat;lon;timestamp;pressure;altitude;pressure_sealevel;temperature;humidity
44926;BME280;30662;51.210;7.656;2022-11-21T00:00:47;149646.47;;;3.34;100.00
44926;BME280;30662;51.210;7.656;2022-11-21T00:03:13;149652.75;;;3.36;100.00
44926;BME280;30662;51.210;7.656;2022-11-21T00:05:42;149631.38;;;3.27;100.00
44926;BME280;30662;51.210;7.656;2022-11-21T00:08:10;149656.53;;;3.38;100.00
44926;BME280;30662;51.210;7.656;2022-11-21T00:10:37;149651.50;;;3.36;100.00
44926;BME280;30662;51.210;7.656;2022-11-21T00:13:04;149662.81;;;3.40;100.00
44926;BME280;30662;51.210;7.656;2022-11-21T00:15:31;149616.25;;;3.21;100.00
44926;BME280;30662;51.210;7.656;2022-11-21T00:17:57;149601.13;;;3.15;100.00
44926;BME280;30662;51.210;7.656;2022-11-21T00:20:23;149597.38;;;3.14;100.00
44926;BME280;30662;51.210;7.656;2022-11-21T00:22:49;149558.38;;;2.98;100.00
44926;BME280;30662;51.210;7.656;2022-11-21T00:25:15;149557.09;;;2.97;100.00
44926;BME280;30662;51.210;7.656;2022-11-21T00:27:41;149552.03;;;2.95;100.00
44926;BME280;30662;51.210;7.656;2022-11-21T00:30:09;149533.16;;;2.88;100.00
44926;BME280;30662;51.210;7.656;2022-11-21T00:32:35;149534.41;;;2.88;100.00
44926;BME280;30662;51.210;7.656;2022-11-21T00:35:00;149547.03;;;2.93;100.00
44926;BME280;30662;51.210;7.656;2022-11-21T00:37:26;149547.03;;;2.93;100.00
44926;BME280;30662;51.210;7.656;2022-11-21T00:39:52;149529.41;;;2.86;100.00
44926;BME280;30662;51.210;7.656;2022-11-21T00:42:18;149564.63;;;3.00;100.00
44926;BME280;30662;51.210;7.656;2022-11-21T00:44:44;149534.41;;;2.88;100.00
44926;BME280;30662;51.210;7.656;2022-11-21T00:47:09;149525.63;;;2.85;100.00
44926;BME280;30662;51.210;7.656;2022-11-21T00:49:35;149531.91;;;2.87;100.00
44926;BME280;30662;51.210;7.656;2022-11-21T00:52:01;149557.09;;;2.97;100.00
44926;BME280;30662;51.210;7.656;2022-11-21T00:54:27;149533.16;;;2.88;100.00
44926;BME280;30662;51.210;7.656;2022-11-21T00:56:53;149559.63;;;2.98;100.00
44926;BME280;30662;51.210;7.656;2022-11-21T00:59:19;149544.50;;;2.92;100.00
44926;BME280;30662;51.210;7.656;2022-11-21T01:01:45;149524.38;;;2.84;100.00
44926;BME280;30662;51.210;7.656;2022-11-21T01:04:11;149523.13;;;2.84;100.00
44926;BME280;30662;51.210;7.656;2022-11-21T01:06:37;149544.50;;;2.92;100.00
44926;BME280;30662;51.210;7.656;2022-11-21T01:09:03;149524.38;;;2.84;100.00
44926;BME280;30662;51.210;7.656;2022-11-21T01:11:29;149509.28;;;2.78;100.00
44926;BME280;30662;51.210;7.656;2022-11-21T01:13:55;149504.25;;;2.76;100.00
44926;BME280;30662;51.210;7.656;2022-11-21T01:16:23;149519.31;;;2.82;100.00
44926;BME280;30662;51.210;7.656;2022-11-21T01:18:49;149538.22;;;2.90;100.00
44926;BME280;30662;51.210;7.656;2022-11-21T01:23:41;149521.88;;;2.83;100.00
44926;BME280;30662;51.210;7.656;2022-11-21T01:26:14;149525.63;;;2.85;100.00
44926;BME280;30662;51.210;7.656;2022-11-21T01:28:40;149529.41;;;2.86;100.00
44926;BME280;30662;51.210;7.656;2022-11-21T01:31:32;149524.38;;;2.84;100.00
44926;BME280;30662;51.210;7.656;2022-11-21T01:33:59;149510.53;;;2.79;100.00
44926;BME280;30662;51.210;7.656;2022-11-21T01:36:30;149515.53;;;2.81;100.00
44926;BME280;30662;51.210;7.656;2022-11-21T01:38:59;149564.63;;;3.00;100.00
44926;BME280;30662;51.210;7.656;2022-11-21T01:41:31;149520.63;;;2.83;100.00
44926;BME280;30662;51.210;7.656;2022-11-21T01:44:01;149510.53;;;2.79;100.00
44926;BME280;30662;51.210;7.656;2022-11-21T01:46:28;149518.06;;;2.82;100.00
44926;BME280;30662;51.210;7.656;2022-11-21T01:49:27;149523.13;;;2.84;100.00
44926;BME280;30662;51.210;7.656;2022-11-21T01:52:19;149531.91;;;2.87;100.00
44926;BME280;30662;51.210;7.656;2022-11-21T01:54:57;149523.13;;;2.84;100.00
44926;BME280;30662;51.210;7.656;2022-11-21T02:00:19;149526.88;;;2.85;100.00
44926;BME280;30662;51.210;7.656;2022-11-21T02:02:51;149533.16;;;2.88;100.00
44926;BME280;30662;51.210;7.656;2022-11-21T02:05:21;149514.28;;;2.80;100.00
44926;BME280;30662;51.210;7.656;2022-11-21T02:07:48;149503.00;;;2.75;100.00
44926;BME280;30662;51.210;7.656;2022-11-21T02:10:16;149530.66;;;2.87;100.00
44926;BME280;30662;51.210;7.656;2022-11-21T02:12:53;149521.88;;;2.83;100.00
44926;BME280;30662;51.210;7.656;2022-11-21T02:15:22;149540.75;;;2.91;100.00
44926;BME280;30662;51.210;7.656;2022-11-21T02:17:49;149520.63;;;2.83;100.00
44926;BME280;30662;51.210;7.656;2022-11-21T02:20:17;149534.41;;;2.88;100.00
44926;BME280;30662;51.210;7.656;2022-11-21T02:25:38;149526.88;;;2.85;100.00
44926;BME280;30662;51.210;7.656;2022-11-21T02:28:08;149539.47;;;2.90;100.00
44926;BME280;30662;51.210;7.656;2022-11-21T02:30:37;149525.63;;;2.85;100.00
44926;BME280;30662;51.210;7.656;2022-11-21T02:33:04;149531.91;;;2.87;100.00
44926;BME280;30662;51.210;7.656;2022-11-21T02:35:31;149534.41;;;2.88;100.00
44926;BME280;30662;51.210;7.656;2022-11-21T02:38:01;149535.66;;;2.89;100.00
44926;BME280;30662;51.210;7.656;2022-11-21T02:40:32;149535.66;;;2.89;100.00
44926;BME280;30662;51.210;7.656;2022-11-21T02:43:18;149535.66;;;2.89;100.00
44926;BME280;30662;51.210;7.656;2022-11-21T02:45:46;149538.22;;;2.90;100.00
44926;BME280;30662;51.210;7.656;2022-11-21T02:48:12;149545.75;;;2.93;100.00
44926;BME280;30662;51.210;7.656;2022-11-21T02:50:43;149530.66;;;2.87;100.00
44926;BME280;30662;51.210;7.656;2022-11-21T02:53:12;149555.81;;;2.97;100.00
44926;BME280;30662;51.210;7.656;2022-11-21T02:55:38;149545.75;;;2.93;100.00
44926;BME280;30662;51.210;7.656;2022-11-21T02:58:04;149500.44;;;2.74;100.00
44926;BME280;30662;51.210;7.656;2022-11-21T03:00:32;149506.75;;;2.77;100.00
44926;BME280;30662;51.210;7.656;2022-11-21T03:02:58;149530.66;;;2.87;100.00
44926;BME280;30662;51.210;7.656;2022-11-21T03:05:25;149495.41;;;2.72;100.00
44926;BME280;30662;51.210;7.656;2022-11-21T03:07:52;149482.81;;;2.67;100.00
44926;BME280;30662;51.210;7.656;2022-11-21T03:10:19;149510.53;;;2.79;100.00
44926;BME280;30662;51.210;7.656;2022-11-21T03:12:45;149514.28;;;2.80;100.00
44926;BME280;30662;51.210;7.656;2022-11-21T03:15:14;149513.03;;;2.80;100.00
44926;BME280;30662;51.210;7.656;2022-11-21T03:17:41;149521.88;;;2.83;100.00
44926;BME280;30662;51.210;7.656;2022-11-21T03:20:09;149499.19;;;2.74;100.00
44926;BME280;30662;51.210;7.656;2022-11-21T03:22:35;149509.28;;;2.78;100.00
44926;BME280;30662;51.210;7.656;2022-11-21T03:25:01;149492.91;;;2.71;100.00
44926;BME280;30662;51.210;7.656;2022-11-21T03:27:27;149495.41;;;2.72;100.00
44926;BME280;30662;51.210;7.656;2022-11-21T03:29:53;149496.66;;;2.73;100.00
44926;BME280;30662;51.210;7.656;2022-11-21T03:32:18;149485.38;;;2.68;100.00
44926;BME280;30662;51.210;7.656;2022-11-21T03:34:44;149509.28;;;2.78;100.00
44926;BME280;30662;51.210;7.656;2022-11-21T03:37:10;149476.53;;;2.65;100.00
44926;BME280;30662;51.210;7.656;2022-11-21T03:39:36;149469.00;;;2.62;100.00
44926;BME280;30662;51.210;7.656;2022-11-21T03:42:02;149476.53;;;2.65;100.00
44926;BME280;30662;51.210;7.656;2022-11-21T03:44:28;149487.88;;;2.69;100.00
44926;BME280;30662;51.210;7.656;2022-11-21T03:46:54;149465.19;;;2.60;100.00
44926;BME280;30662;51.210;7.656;2022-11-21T03:49:20;149465.19;;;2.60;100.00
44926;BME280;30662;51.210;7.656;2022-11-21T03:51:46;149460.19;;;2.58;100.00
44926;BME280;30662;51.210;7.656;2022-11-21T03:54:12;149436.28;;;2.48;100.00
44926;BME280;30662;51.210;7.656;2022-11-21T03:56:37;149448.88;;;2.54;100.00
44926;BME280;30662;51.210;7.656;2022-11-21T03:59:06;149466.50;;;2.61;100.00
44926;BME280;30662;51.210;7.656;2022-11-21T04:01:32;149485.38;;;2.68;100.00
44926;BME280;30662;51.210;7.656;2022-11-21T04:04:02;149469.00;;;2.62;100.00
44926;BME280;30662;51.210;7.656;2022-11-21T04:06:28;149467.75;;;2.61;100.00
44926;BME280;30662;51.210;7.656;2022-11-21T04:08:56;149452.66;;;2.55;100.00
44926;BME280;30662;51.210;7.656;2022-11-21T04:11:22;149466.50;;;2.61;100.00
44926;BME280;30662;51.210;7.656;2022-11-21T04:13:50;149479.06;;;2.66;100.00
44926;BME280;30662;51.210;7.656;2022-11-21T04:16:16;149480.31;;;2.66;100.00
44926;BME280;30662;51.210;7.656;2022-11-21T04:18:42;149467.75;;;2.61;100.00
44926;BME280;30662;51.210;7.656;2022-11-21T04:21:08;149442.56;;;2.51;100.00
44926;BME280;30662;51.210;7.656;2022-11-21T04:23:34;149432.53;;;2.47;100.00
44926;BME280;30662;51.210;7.656;2022-11-21T04:26:00;149463.94;;;2.60;100.00
44926;BME280;30662;51.210;7.656;2022-11-21T04:28:26;149446.34;;;2.53;100.00
44926;BME280;30662;51.210;7.656;2022-11-21T04:30:52;149432.53;;;2.47;100.00
44926;BME280;30662;51.210;7.656;2022-11-21T04:33:20;149465.19;;;2.60;100.00
44926;BME280;30662;51.210;7.656;2022-11-21T04:35:46;149458.94;;;2.58;100.00
44926;BME280;30662;51.210;7.656;2022-11-21T04:38:13;149455.16;;;2.56;100.00
44926;BME280;30662;51.210;7.656;2022-11-21T04:40:39;149456.41;;;2.57;100.00
44926;BME280;30662;51.210;7.656;2022-11-21T04:43:05;149426.22;;;2.44;100.00
44926;BME280;30662;51.210;7.656;2022-11-21T04:45:31;149409.84;;;2.38;100.00
44926;BME280;30662;51.210;7.656;2022-11-21T04:47:57;149419.94;;;2.42;100.00
44926;BME280;30662;51.210;7.656;2022-11-21T04:50:23;149416.16;;;2.40;100.00
44926;BME280;30662;51.210;7.656;2022-11-21T04:52:51;149426.22;;;2.44;100.00
44926;BME280;30662;51.210;7.656;2022-11-21T04:55:17;149440.06;;;2.50;100.00
44926;BME280;30662;51.210;7.656;2022-11-21T04:57:43;149450.16;;;2.54;100.00
44926;BME280;30662;51.210;7.656;2022-11-21T05:00:09;149426.22;;;2.44;100.00
44926;BME280;30662;51.210;7.656;2022-11-21T05:02:35;149399.81;;;2.34;100.00
44926;BME280;30662;51.210;7.656;2022-11-21T05:05:01;149435.03;;;2.48;100.00
44926;BME280;30662;51.210;7.656;2022-11-21T05:07:27;149428.72;;;2.45;100.00
44926;BME280;30662;51.210;7.656;2022-11-21T05:09:52;149447.59;;;2.53;100.00
44926;BME280;30662;51.210;7.656;2022-11-21T05:12:18;149445.06;;;2.52;100.00
44926;BME280;30662;51.210;7.656;2022-11-21T05:15:03;149455.16;;;2.56;100.00
44926;BME280;30662;51.210;7.656;2022-11-21T05:17:29;149460.19;;;2.58;100.00
44926;BME280;30662;51.210;7.656;2022-11-21T05:19:55;149455.16;;;2.56;100.00
44926;BME280;30662;51.210;7.656;2022-11-21T05:22:20;149443.81;;;2.52;100.00
44926;BME280;30662;51.210;7.656;2022-11-21T05:24:46;149452.66;;;2.55;100.00
44926;BME280;30662;51.210;7.656;2022-11-21T05:27:12;149456.41;;;2.57;100.00
44926;BME280;30662;51.210;7.656;2022-11-21T05:29:38;149437.53;;;2.49;100.00
44926;BME280;30662;51.210;7.656;2022-11-21T05:32:04;149446.34;;;2.53;100.00
44926;BME280;30662;51.210;7.656;2022-11-21T05:34:30;149451.41;;;2.55;100.00
44926;BME280;30662;51.210;7.656;2022-11-21T05:36:56;149469.00;;;2.62;100.00
44926;BME280;30662;51.210;7.656;2022-11-21T05:39:25;149462.69;;;2.59;100.00
44926;BME280;30662;51.210;7.656;2022-11-21T05:41:51;149462.69;;;2.59;100.00
44926;BME280;30662;51.210;7.656;2022-11-21T05:44:17;149469.00;;;2.62;100.00
44926;BME280;30662;51.210;7.656;2022-11-21T05:46:43;149480.31;;;2.66;100.00
44926;BME280;30662;51.210;7.656;2022-11-21T05:49:10;149494.16;;;2.72;100.00
44926;BME280;30662;51.210;7.656;2022-11-21T05:51:36;149501.69;;;2.75;100.00
44926;BME280;30662;51.210;7.656;2022-11-21T05:54:02;149503.00;;;2.75;100.00
44926;BME280;30662;51.210;7.656;2022-11-21T05:56:28;149490.41;;;2.70;100.00
44926;BME280;30662;51.210;7.656;2022-11-21T05:58:55;149479.06;;;2.66;100.00
44926;BME280;30662;51.210;7.656;2022-11-21T06:01:21;149479.06;;;2.66;100.00
44926;BME280;30662;51.210;7.656;2022-11-21T06:04:08;149471.53;;;2.63;100.00
44926;BME280;30662;51.210;7.656;2022-11-21T06:06:34;149469.00;;;2.62;100.00
44926;BME280;30662;51.210;7.656;2022-11-21T06:09:01;149460.19;;;2.58;100.00
44926;BME280;30662;51.210;7.656;2022-11-21T06:11:27;149452.66;;;2.55;100.00
44926;BME280;30662;51.210;7.656;2022-11-21T06:13:53;149484.06;;;2.68;100.00
44926;BME280;30662;51.210;7.656;2022-11-21T06:16:19;149485.38;;;2.68;100.00
44926;BME280;30662;51.210;7.656;2022-11-21T06:18:50;149506.75;;;2.77;100.00
44926;BME280;30662;51.210;7.656;2022-11-21T06:21:25;149470.28;;;2.62;100.00
44926;BME280;30662;51.210;7.656;2022-11-21T06:23:54;149453.91;;;2.56;100.00
44926;BME280;30662;51.210;7.656;2022-11-21T06:26:22;149458.94;;;2.58;100.00
44926;BME280;30662;51.210;7.656;2022-11-21T06:28:49;149475.28;;;2.64;100.00
44926;BME280;30662;51.210;7.656;2022-11-21T06:31:20;149479.06;;;2.66;100.00
44926;BME280;30662;51.210;7.656;2022-11-21T06:33:50;149482.81;;;2.67;100.00
44926;BME280;30662;51.210;7.656;2022-11-21T06:36:16;149484.06;;;2.68;100.00
44926;BME280;30662;51.210;7.656;2022-11-21T06:38:43;149471.53;;;2.63;100.00
44926;BME280;30662;51.210;7.656;2022-11-21T06:41:14;149477.78;;;2.65;100.00
44926;BME280;30662;51.210;7.656;2022-11-21T06:43:41;149453.91;;;2.56;100.00
44926;BME280;30662;51.210;7.656;2022-11-21T06:46:07;149465.19;;;2.60;100.00
44926;BME280;30662;51.210;7.656;2022-11-21T06:48:34;149441.31;;;2.51;100.00
44926;BME280;30662;51.210;7.656;2022-11-21T06:51:10;149455.16;;;2.56;100.00
44926;BME280;30662;51.210;7.656;2022-11-21T06:53:37;149438.81;;;2.49;100.00
44926;BME280;30662;51.210;7.656;2022-11-21T06:56:03;149458.94;;;2.58;100.00
44926;BME280;30662;51.210;7.656;2022-11-21T06:58:30;149450.16;;;2.54;100.00
44926;BME280;30662;51.210;7.656;2022-11-21T07:00:56;149460.19;;;2.58;100.00
44926;BME280;30662;51.210;7.656;2022-11-21T07:03:22;149470.28;;;2.62;100.00
44926;BME280;30662;51.210;7.656;2022-11-21T07:05:48;149482.81;;;2.67;100.00
44926;BME280;30662;51.210;7.656;2022-11-21T07:08:15;149469.00;;;2.62;100.00
44926;BME280;30662;51.210;7.656;2022-11-21T07:10:41;149494.16;;;2.72;100.00
44926;BME280;30662;51.210;7.656;2022-11-21T07:13:26;149505.50;;;2.76;100.00
44926;BME280;30662;51.210;7.656;2022-11-21T07:15:54;149509.28;;;2.78;100.00
44926;BME280;30662;51.210;7.656;2022-11-21T07:18:21;149504.25;;;2.76;100.00
44926;BME280;30662;51.210;7.656;2022-11-21T07:20:47;149479.06;;;2.66;100.00
44926;BME280;30662;51.210;7.656;2022-11-21T07:23:14;149492.91;;;2.71;100.00
44926;BME280;30662;51.210;7.656;2022-11-21T07:25:40;149501.69;;;2.75;100.00
44926;BME280;30662;51.210;7.656;2022-11-21T07:28:07;149450.16;;;2.54;100.00
44926;BME280;30662;51.210;7.656;2022-11-21T07:30:34;149426.22;;;2.44;100.00
44926;BME280;30662;51.210;7.656;2022-11-21T07:33:03;149416.16;;;2.40;100.00
44926;BME280;30662;51.210;7.656;2022-11-21T07:35:30;149429.97;;;2.46;100.00
44926;BME280;30662;51.210;7.656;2022-11-21T07:37:57;149450.16;;;2.54;100.00
44926;BME280;30662;51.210;7.656;2022-11-21T07:40:22;149446.34;;;2.53;100.00
44926;BME280;30662;51.210;7.656;2022-11-21T07:42:48;149453.91;;;2.56;100.00
44926;BME280;30662;51.210;7.656;2022-11-21T07:45:15;149457.66;;;2.57;100.00
44926;BME280;30662;51.210;7.656;2022-11-21T07:47:41;149455.16;;;2.56;100.00
44926;BME280;30662;51.210;7.656;2022-11-21T07:50:08;149481.56;;;2.67;100.00
44926;BME280;30662;51.210;7.656;2022-11-21T07:52:34;149499.19;;;2.74;100.00
44926;BME280;30662;51.210;7.656;2022-11-21T07:55:00;149513.03;;;2.80;100.00
44926;BME280;30662;51.210;7.656;2022-11-21T07:57:27;149520.63;;;2.83;100.00
44926;BME280;30662;51.210;7.656;2022-11-21T07:59:53;149528.13;;;2.86;100.00
44926;BME280;30662;51.210;7.656;2022-11-21T08:02:21;149505.50;;;2.76;100.00
44926;BME280;30662;51.210;7.656;2022-11-21T08:04:48;149519.31;;;2.82;100.00
44926;BME280;30662;51.210;7.656;2022-11-21T08:07:14;149519.31;;;2.82;100.00
44926;BME280;30662;51.210;7.656;2022-11-21T08:09:40;149525.63;;;2.85;100.00
44926;BME280;30662;51.210;7.656;2022-11-21T08:12:07;149549.53;;;2.94;100.00
44926;BME280;30662;51.210;7.656;2022-11-21T08:14:33;149558.38;;;2.98;100.00
44926;BME280;30662;51.210;7.656;2022-11-21T08:16:59;149563.38;;;3.00;100.00
44926;BME280;30662;51.210;7.656;2022-11-21T08:19:25;149562.13;;;2.99;100.00
44926;BME280;30662;51.210;7.656;2022-11-21T08:21:51;149565.91;;;3.01;100.00
44926;BME280;30662;51.210;7.656;2022-11-21T08:24:17;149587.28;;;3.10;100.00
44926;BME280;30662;51.210;7.656;2022-11-21T08:26:43;149597.38;;;3.14;100.00
44926;BME280;30662;51.210;7.656;2022-11-21T08:29:10;149564.63;;;3.00;100.00
44926;BME280;30662;51.210;7.656;2022-11-21T08:31:37;149553.28;;;2.96;100.00
44926;BME280;30662;51.210;7.656;2022-11-21T08:34:04;149567.16;;;3.01;100.00
44926;BME280;30662;51.210;7.656;2022-11-21T08:36:29;149606.16;;;3.17;100.00
44926;BME280;30662;51.210;7.656;2022-11-21T08:38:55;149612.50;;;3.20;100.00
44926;BME280;30662;51.210;7.656;2022-11-21T08:41:21;149579.75;;;3.07;100.00
44926;BME280;30662;51.210;7.656;2022-11-21T08:44:05;149587.28;;;3.10;100.00
44926;BME280;30662;51.210;7.656;2022-11-21T08:46:39;149593.59;;;3.12;100.00
44926;BME280;30662;51.210;7.656;2022-11-21T08:49:05;149598.63;;;3.14;100.00
44926;BME280;30662;51.210;7.656;2022-11-21T08:51:32;149602.41;;;3.16;100.00
44926;BME280;30662;51.210;7.656;2022-11-21T08:53:58;149601.13;;;3.15;100.00
44926;BME280;30662;51.210;7.656;2022-11-21T08:56:24;149613.75;;;3.20;100.00
44926;BME280;30662;51.210;7.656;2022-11-21T08:58:50;149597.38;;;3.14;100.00
44926;BME280;30662;51.210;7.656;2022-11-21T09:01:16;149621.28;;;3.23;100.00
44926;BME280;30662;51.210;7.656;2022-11-21T09:03:42;149651.50;;;3.36;100.00
44926;BME280;30662;51.210;7.656;2022-11-21T09:06:08;149681.75;;;3.48;100.00
44926;BME280;30662;51.210;7.656;2022-11-21T09:08:34;149676.66;;;3.46;100.00
44926;BME280;30662;51.210;7.656;2022-11-21T09:11:04;149704.38;;;3.57;100.00
44926;BME280;30662;51.210;7.656;2022-11-21T09:13:30;149677.94;;;3.46;100.00
44926;BME280;30662;51.210;7.656;2022-11-21T09:15:57;149667.88;;;3.42;100.00
44926;BME280;30662;51.210;7.656;2022-11-21T09:18:46;149659.03;;;3.39;100.00
44926;BME280;30662;51.210;7.656;2022-11-21T09:21:16;149650.25;;;3.35;100.00
44926;BME280;30662;51.210;7.656;2022-11-21T09:23:42;149660.28;;;3.39;100.00
44926;BME280;30662;51.210;7.656;2022-11-21T09:26:08;149672.91;;;3.44;100.00
44926;BME280;30662;51.210;7.656;2022-11-21T09:28:34;149696.81;;;3.54;100.00
44926;BME280;30662;51.210;7.656;2022-11-21T09:31:04;149696.81;;;3.54;100.00
44926;BME280;30662;51.210;7.656;2022-11-21T09:33:30;149700.63;;;3.55;100.00
44926;BME280;30662;51.210;7.656;2022-11-21T09:35:59;149732.06;;;3.68;100.00
44926;BME280;30662;51.210;7.656;2022-11-21T09:38:26;149723.28;;;3.65;100.00
44926;BME280;30662;51.210;7.656;2022-11-21T09:41:01;149715.69;;;3.62;100.00
44926;BME280;30662;51.210;7.656;2022-11-21T09:44:09;149680.44;;;3.47;100.00
44926;BME280;30662;51.210;7.656;2022-11-21T09:46:44;149691.78;;;3.52;100.00
44926;BME280;30662;51.210;7.656;2022-11-21T09:49:12;149706.91;;;3.58;100.00
44926;BME280;30662;51.210;7.656;2022-11-21T09:51:40;149715.69;;;3.62;100.00
44926;BME280;30662;51.210;7.656;2022-11-21T09:56:37;149749.69;;;3.75;100.00
44926;BME280;30662;51.210;7.656;2022-11-21T09:59:31;149767.34;;;3.82;100.00
44926;BME280;30662;51.210;7.656;2022-11-21T10:01:58;149774.91;;;3.85;100.00
44926;BME280;30662;51.210;7.656;2022-11-21T10:04:26;149773.66;;;3.85;100.00
44926;BME280;30662;51.210;7.656;2022-11-21T10:09:41;149743.41;;;3.73;100.00
44926;BME280;30662;51.210;7.656;2022-11-21T10:21:18;149812.69;;;4.01;100.00
44926;BME280;30662;51.210;7.656;2022-11-21T10:29:16;149803.84;;;3.97;100.00
44926;BME280;30662;51.210;7.656;2022-11-21T10:31:44;149807.69;;;3.99;100.00
44926;BME280;30662;51.210;7.656;2022-11-21T10:34:14;149827.81;;;4.07;100.00
44926;BME280;30662;51.210;7.656;2022-11-21T10:36:46;149870.63;;;4.24;100.00
44926;BME280;30662;51.210;7.656;2022-11-21T10:39:36;149864.34;;;4.22;100.00
44926;BME280;30662;51.210;7.656;2022-11-21T10:44:52;149842.94;;;4.13;100.00
44926;BME280;30662;51.210;7.656;2022-11-21T10:47:37;149847.97;;;4.15;100.00
44926;BME280;30662;51.210;7.656;2022-11-21T10:52:43;149878.19;;;4.27;100.00
44926;BME280;30662;51.210;7.656;2022-11-21T10:55:12;149887.03;;;4.31;100.00
44926;BME280;30662;51.210;7.656;2022-11-21T10:57:49;149890.78;;;4.32;100.00
44926;BME280;30662;51.210;7.656;2022-11-21T11:00:18;149884.50;;;4.30;100.00
44926;BME280;30662;51.210;7.656;2022-11-21T11:08:08;149849.22;;;4.15;100.00
44926;BME280;30662;51.210;7.656;2022-11-21T11:10:42;149855.50;;;4.18;100.00
44926;BME280;30662;51.210;7.656;2022-11-21T11:13:12;149845.47;;;4.14;100.00
44926;BME280;30662;51.210;7.656;2022-11-21T11:18:46;149894.56;;;4.34;100.00
44926;BME280;30662;51.210;7.656;2022-11-21T11:21:41;149942.47;;;4.53;100.00
44926;BME280;30662;51.210;7.656;2022-11-21T11:29:25;150419.22;;;6.46;100.00
44926;BME280;30662;51.210;7.656;2022-11-21T11:43:22;150141.63;;;5.34;100.00
44926;BME280;30662;51.210;7.656;2022-11-21T11:52:21;150011.78;;;4.81;100.00
44926;BME280;30662;51.210;7.656;2022-11-21T11:54:57;149992.88;;;4.74;100.00
44926;BME280;30662;51.210;7.656;2022-11-21T11:57:29;149953.81;;;4.58;100.00
44926;BME280;30662;51.210;7.656;2022-11-21T12:05:31;149936.19;;;4.51;100.00
44926;BME280;30662;51.210;7.656;2022-11-21T12:08:09;149979.00;;;4.68;100.00
44926;BME280;30662;51.210;7.656;2022-11-21T12:11:09;149938.69;;;4.52;100.00
44926;BME280;30662;51.210;7.656;2022-11-21T12:14:03;149912.19;;;4.41;100.00
44926;BME280;30662;51.210;7.656;2022-11-21T12:16:33;149950.06;;;4.56;100.00
44926;BME280;30662;51.210;7.656;2022-11-21T12:19:11;149946.22;;;4.55;100.00
44926;BME280;30662;51.210;7.656;2022-11-21T12:21:38;149914.75;;;4.42;100.00
44926;BME280;30662;51.210;7.656;2022-11-21T12:24:08;149910.94;;;4.40;100.00
44926;BME280;30662;51.210;7.656;2022-11-21T12:27:04;149917.28;;;4.43;100.00
44926;BME280;30662;51.210;7.656;2022-11-21T12:30:13;149953.81;;;4.58;100.00
44926;BME280;30662;51.210;7.656;2022-11-21T12:41:31;149923.56;;;4.46;100.00
44926;BME280;30662;51.210;7.656;2022-11-21T12:47:00;149907.19;;;4.39;100.00
44926;BME280;30662;51.210;7.656;2022-11-21T12:50:01;149909.69;;;4.40;100.00
44926;BME280;30662;51.210;7.656;2022-11-21T12:52:58;149932.41;;;4.49;100.00
44926;BME280;30662;51.210;7.656;2022-11-21T12:55:46;149951.31;;;4.57;100.00
44926;BME280;30662;51.210;7.656;2022-11-21T12:58:37;149939.94;;;4.52;100.00
44926;BME280;30662;51.210;7.656;2022-11-21T13:01:04;149960.09;;;4.60;100.00
44926;BME280;30662;51.210;7.656;2022-11-21T13:03:49;149924.81;;;4.46;100.00
44926;BME280;30662;51.210;7.656;2022-11-21T13:06:26;149937.44;;;4.51;100.00
44926;BME280;30662;51.210;7.656;2022-11-21T13:08:54;149921.03;;;4.45;100.00
44926;BME280;30662;51.210;7.656;2022-11-21T13:11:31;149888.28;;;4.31;100.00
44926;BME280;30662;51.210;7.656;2022-11-21T13:19:55;149900.88;;;4.36;100.00
44926;BME280;30662;51.210;7.656;2022-11-21T13:25:01;149927.31;;;4.47;100.00
44926;BME280;30662;51.210;7.656;2022-11-21T13:27:35;149972.72;;;4.65;100.00
44926;BME280;30662;51.210;7.656;2022-11-21T13:38:06;150033.19;;;4.90;100.00
44926;BME280;30662;51.210;7.656;2022-11-21T13:40:36;150021.88;;;4.85;100.00
44926;BME280;30662;51.210;7.656;2022-11-21T13:45:55;149997.91;;;4.76;100.00
44926;BME280;30662;51.210;7.656;2022-11-21T13:59:49;150002.94;;;4.78;100.00
44926;BME280;30662;51.210;7.656;2022-11-21T14:07:42;149943.72;;;4.54;100.00
44926;BME280;30662;51.210;7.656;2022-11-21T14:12:47;149929.84;;;4.48;100.00
44926;BME280;30662;51.210;7.656;2022-11-21T14:15:49;149907.19;;;4.39;100.00
44926;BME280;30662;51.210;7.656;2022-11-21T14:18:21;149889.53;;;4.32;100.00
44926;BME280;30662;51.210;7.656;2022-11-21T14:20:51;149889.53;;;4.32;100.00
44926;BME280;30662;51.210;7.656;2022-11-21T14:23:23;149866.88;;;4.23;100.00
44926;BME280;30662;51.210;7.656;2022-11-21T14:26:33;149893.31;;;4.33;100.00
44926;BME280;30662;51.210;7.656;2022-11-21T14:28:39;149898.38;;;4.35;100.00
44926;BME280;30662;51.210;7.656;2022-11-21T14:31:06;149879.47;;;4.28;100.00
44926;BME280;30662;51.210;7.656;2022-11-21T14:33:34;149878.19;;;4.27;100.00
44926;BME280;30662;51.210;7.656;2022-11-21T14:36:20;149888.28;;;4.31;100.00
44926;BME280;30662;51.210;7.656;2022-11-21T14:38:49;149834.09;;;4.09;100.00
44926;BME280;30662;51.210;7.656;2022-11-21T14:41:37;149827.81;;;4.07;100.00
44926;BME280;30662;51.210;7.656;2022-11-21T14:44:13;149844.22;;;4.13;100.00
44926;BME280;30662;51.210;7.656;2022-11-21T14:46:40;149878.19;;;4.27;100.00
44926;BME280;30662;51.210;7.656;2022-11-21T14:52:05;149851.75;;;4.17;100.00
44926;BME280;30662;51.210;7.656;2022-11-21T14:55:03;149844.22;;;4.13;100.00
44926;BME280;30662;51.210;7.656;2022-11-21T14:57:50;149846.72;;;4.14;100.00
44926;BME280;30662;51.210;7.656;2022-11-21T15:00:20;149786.22;;;3.90;100.00
44926;BME280;30662;51.210;7.656;2022-11-21T15:03:18;149803.84;;;3.97;100.00
44926;BME280;30662;51.210;7.656;2022-11-21T15:05:44;149797.56;;;3.95;100.00
44926;BME280;30662;51.210;7.656;2022-11-21T15:08:27;149801.34;;;3.96;100.00